This is the latest recevied weather packets stored in our database for station/object WI5ARD. If no packets are shown the sender has not sent any weather packets the latest 10 day(s).
| Time | Temp. | Humidity | Pressure | Rain* | Wind** | Luminosity | Snow |
|---|---|---|---|---|---|---|---|
| 1777954550 | 16.67° C | 76% | 1015.9 hPa | 0 mm | - | 0 W/m² | - |
| 1777954222 | 16.67° C | 76% | 1015.9 hPa | 0 mm | - | 0 W/m² | - |
| 1777952735 | 16.67° C | 75% | 1015.8 hPa | 0 mm | - | 0 W/m² | - |
| 1777951837 | 17.22° C | 74% | 1015.8 hPa | 0 mm | - | 0 W/m² | - |
| 1777950617 | 17.22° C | 73% | 1015.7 hPa | 0 mm | - | 0 W/m² | - |
| 1777949143 | 17.78° C | 71% | 1015.7 hPa | 0 mm | - | 0 W/m² | - |
| 1777948818 | 17.78° C | 71% | 1015.9 hPa | 0 mm | - | 0 W/m² | - |
| 1777948238 | 17.78° C | 71% | 1015.7 hPa | 0 mm | - | 0 W/m² | - |
| 1777946437 | 18.33° C | 68% | 1015.5 hPa | 0 mm | - | 0 W/m² | - |
| 1777945217 | 18.89° C | 66% | 1015.1 hPa | 0 mm | - | 0 W/m² | - |
| 1777943118 | 20° C | 62% | 1015.1 hPa | 0 mm | - | 0 W/m² | - |
| 1777941622 | 21.11° C | 58% | 1015.3 hPa | 0 mm | - | 0 W/m² | - |
| 1777941322 | 21.11° C | 57% | 1015.3 hPa | 0 mm | - | 0 W/m² | - |
| 1777940421 | 21.67° C | 55% | 1015.4 hPa | 0 mm | - | 18 W/m² | - |
| 1777938920 | 22.22° C | 52% | 1015.4 hPa | 0 mm | - | 37 W/m² | - |
| 1777936537 | 23.33° C | 49% | 1015.6 hPa | 0 mm | - | 227 W/m² | - |
| 1777932040 | 23.33° C | 49% | 1016.5 hPa | 0 mm | - | 519 W/m² | - |
| 1777931421 | 23.33° C | 50% | 1016.4 hPa | 0 mm | - | 130 W/m² | - |
| 1777929623 | 23.89° C | 51% | 1016.7 hPa | 0 mm | - | 141 W/m² | - |
| 1777928119 | 23.89° C | 50% | 1016.3 hPa | 0 mm | - | 88 W/m² | - |
| 1777925120 | 24.44° C | 47% | 1017.4 hPa | 0 mm | - | 896 W/m² | - |
| 1777923036 | 24.44° C | 47% | 1018 hPa | 0 mm | - | 963 W/m² | - |
| 1777921519 | 24.44° C | 50% | 1018 hPa | 0 mm | - | 991 W/m² | - |
| 1777917021 | 23.89° C | 51% | 1018.7 hPa | 0 mm | - | 1046 W/m² | - |
| 1777916422 | 23.89° C | 48% | 1018.7 hPa | 0 mm | - | 1044 W/m² | - |
* Rain latest hour (hover to see other rain measurements)
** Current wind speed in m/s (hover to see current wind gust speed)